Anna Desgagnes — VCWS — position and weather

sailwx.info

Track history (hours):
 
Tides and Currents Weather Stations Pressure Air Temp Water Temp Dewpoint Dewpoint Depression Visibility Wind Speed Wind Dir Waves Ship Positions

Anna Desgagnes

Last reported at 2016-Jul-25 03:00 UTC. Time now 2016-Jul-25 04:21 UTC.
Position N 62°00' W 068°24'.

Length 173 m; draft 8.4 m.

Type: Ship. MMSI: 316297000.

Wind from 160 at 4 knots

Barometer 1018.8 mb
Air temperature 4.1 ° C
Dewpoint 4.1 ° C
Water temperature 2.4 ° C

Date/timePositionNaut miles runAvg speedWind from/ knotsBaromVisibWave heightAir tempDewpointWater temp
2016-Jul-25 03:00N 62°00' W 068°24'1312.7 160 / 41018.8 4.1 4.1 2.4
2016-Jul-25 02:00N 62°06' W 068°48'1010.3 290 / 51018.8 4.6 4.6 2.7
2016-Jul-25 01:00N 62°12' W 069°06'1514.6 280 / 61018.7 4.4 4.4 3.3
2016-Jul-25 00:00N 62°24' W 069°24'8 8.2 310 / 41018.4 3.8 3.8 2.8
2016-Jul-24 23:00N 62°30' W 069°36'1212.3 210 / 41018.0 4.1 4.1 2.4
2016-Jul-24 22:00N 62°42' W 069°42'7 6.6 170 / 11018.3 4.4 4.0 4.3
2016-Jul-24 21:00N 62°48' W 069°48'3 2.7 170 / 11018.1 6.4 5.0
2016-Jul-24 20:00N 62°48' W 069°42'0 0.0 160 / 41017.5 6.6 5.6
2016-Jul-24 18:00N 62°48' W 069°42'0 0.0 130 / 41016.8 5.4 4.8
2016-Jul-24 16:00N 62°48' W 069°42'3 0.9 110 / 31016.1 4.1 4.1
2016-Jul-24 13:00N 62°48' W 069°48'0 0.0 160 / 41015.7 4.1 4.1 3.3
2016-Jul-24 12:00N 62°48' W 069°48'3 2.7 150 / 21015.4 4.4 4.4 3.6
2016-Jul-24 11:00N 62°48' W 069°42'6 6.0 130 / 41015.5 3.8 3.8 3.4
2016-Jul-24 10:00N 62°42' W 069°42'6 6.0 150 / 41015.5 3.2 3.2 3.5
2016-Jul-24 09:00N 62°36' W 069°42'18 9.0 140 / 41015.1 2.8 2.8 2.2
2016-Jul-24 07:00N 62°18' W 069°42'7 6.6 110 / 51013.6 2.7 2.7 3.1
2016-Jul-24 06:00N 62°12' W 069°48'12 6.2 100 / 81013.0 2.7 2.6 3.0
2016-Jul-24 04:00N 62°00' W 069°42'7 6.6 070 / 31012.3 2.6 2.6 3.1
2016-Jul-24 03:00N 61°54' W 069°36'18 6.1 080 / 101011.6 2.4 2.3 2.8
2016-Jul-24 00:00N 61°36' W 069°42'6 6.0 030 / 101011.5 3.3 3.3 3.4
2016-Jul-23 23:00N 61°30' W 069°42'1212.0 340 / 101011.2 3.4 3.3 3.3
2016-Jul-23 22:00N 61°18' W 069°42'6 6.0 350 / 71010.8 3.2 3.2 2.9
2016-Jul-23 21:00N 61°12' W 069°42'6 6.0 010 / 61010.7 3.6 3.6 3.1
2016-Jul-23 20:00N 61°06' W 069°42'6 6.0 330 / 51010.3 3.2 3.2 2.5
2016-Jul-23 19:00N 61°00' W 069°42'0 0.0 350 / 31009.7 3.5 3.4
2016-Jul-23 18:00N 61°00' W 069°42'0 0.0 340 / 121009.0 2.7 2.7
2016-Jul-23 15:00N 61°00' W 069°42'0 0.0 320 / 81007.3 2.6 2.6
2016-Jul-23 14:00N 61°00' W 069°42'0 0.0 310 / 81007.0 2.6 2.6
2016-Jul-23 11:00N 61°00' W 069°42'6 3.0 320 / 131006.4 3.1 3.1 1.8
2016-Jul-23 09:00N 61°06' W 069°42'9 8.7 290 / 121006.0 3.5 3.5 1.0
2016-Jul-23 08:00N 61°06' W 069°24'2010.1 300 / 171004.8 3.4 3.3 2.5
2016-Jul-23 06:00N 61°06' W 068°42'1110.6 330 / 151003.4 2.4 2.3 2.9
2016-Jul-23 05:00N 61°00' W 068°24'1110.6 300 / 101003.0 2.2 2.2 2.5
2016-Jul-23 04:00N 60°54' W 068°06'2512.6 280 / 91002.5 2.4 2.4 2.3
2016-Jul-23 02:00N 60°36' W 067°30'7 6.7 300 / 111002.0 2.1 2.0 1.6
2016-Jul-23 01:00N 60°30' W 067°24'1212.4 320 / 161001.7 1.8 1.8 0.3
2016-Jul-23 00:00N 60°18' W 067°30'7 6.7 340 / 181001.3 2.3 2.3 0.6
2016-Jul-22 23:00N 60°12' W 067°24'7 6.7 350 / 191001.2 2.6 2.5-0.3
2016-Jul-22 22:00N 60°06' W 067°30'17 8.5 020 / 141000.7 2.0 2.0-0.1
2016-Jul-22 20:00N 59°54' W 067°54'1313.5 330 / 81000.8 5.1 5.1 0.1
2016-Jul-22 19:00N 59°48' W 068°18'17 8.5 310 / 171000.2 2.6 2.5 1.0
2016-Jul-22 17:00N 59°36' W 068°42'24 8.2 320 / 13999.1 1.7 1.7 0.8
2016-Jul-22 14:00N 59°24' W 069°24'9 8.6 350 / 12997.1 6.5 6.4 2.3
2016-Jul-22 13:00N 59°18' W 069°36'0 0.0 060 / 3997.2 7.3 7.3
2016-Jul-22 12:00N 59°18' W 069°36'0 0.0 050 / 4997.1 7.2 7.2
2016-Jul-22 10:00N 59°18' W 069°36'0 0.0 997.1 8.4 8.4
2016-Jul-22 06:00N 59°18' W 069°36'0 0.0 330 / 5996.5 6.7 6.7
2016-Jul-21 17:00N 59°18' W 069°36'0 0.0 120 / 20998.8 18.2 9.7
2016-Jul-21 16:00N 59°18' W 069°36'0 0.0 110 / 18999.3 19.011.0
2016-Jul-21 15:00N 59°18' W 069°36'0 0.0 110 / 11999.9 18.511.0
2016-Jul-21 07:00N 59°18' W 069°36'0 0.0 010 / 51005.4 4.6 3.0
2016-Jul-21 05:00N 59°18' W 069°36'0 0.0 130 / 41006.2 9.6 5.0
2016-Jul-21 04:00N 59°18' W 069°36'0 0.0 150 / 21006.5 8.8 4.7
2016-Jul-20 22:00N 59°18' W 069°36'15 7.5 130 / 161007.8 13.3 5.7 4.2
2016-Jul-20 20:00N 59°30' W 069°18'2211.0 120 / 171009.2 3.8 1.7 1.6
2016-Jul-20 18:00N 59°18' W 068°42'1212.0 120 / 111009.8 3.1 1.6 1.1
2016-Jul-20 17:00N 59°06' W 068°42'2512.4 110 / 101009.3 3.2 1.5 0.4
2016-Jul-20 15:00N 58°54' W 069°24'20 9.8 270 / 21008.7 11.3 7.1 1.1
2016-Jul-20 13:00N 58°42' W 069°54'0 0.0 150 / 31009.7 11.5 8.3
2016-Jul-20 11:00N 58°42' W 069°54'0 0.0 180 / 61010.7 9.6 7.7
2016-Jul-20 08:00N 58°42' W 069°54'0 0.0 200 / 81011.4 7.6 6.4
2016-Jul-20 07:00N 58°42' W 069°54'0 0.0 210 / 81011.0 8.8 6.8
2016-Jul-19 23:00N 58°42' W 069°54'0 0.0 060 / 21010.9 12.1 6.7
2016-Jul-19 19:00N 58°42' W 069°54'0 0.0 1010.9 11.0 7.7
2016-Jul-19 17:00N 58°42' W 069°54'0 0.0 060 / 61009.7 8.1 6.9
2016-Jul-19 16:00N 58°42' W 069°54'0 0.0 020 / 111009.2 8.1 6.5
2016-Jul-19 11:00N 58°42' W 069°54'0 0.0 340 / 71007.3 9.6 7.1
2016-Jul-19 09:00N 58°42' W 069°54'0 0.0 360 / 61006.9 9.5 7.0
2016-Jul-19 07:00N 58°42' W 069°54'0 0.0 350 / 81006.2 10.0 7.1
2016-Jul-19 06:00N 58°42' W 069°54'0 0.0 360 / 91005.9 10.7 7.4
2016-Jul-19 05:00N 58°42' W 069°54'0 0.0 360 / 121005.0 11.2 7.3
2016-Jul-19 02:00N 58°42' W 069°54'0 0.0 350 / 21003.7 11.4 9.6
2016-Jul-19 01:00N 58°42' W 069°54'0 0.0 170 / 41003.8 12.610.1
2016-Jul-18 23:00N 58°42' W 069°54'9 4.3 010 / 31002.6 12.7 9.0 6.2
2016-Jul-18 21:00N 58°48' W 069°42'1413.8 190 / 61003.5 10.7 8.6 2.8
2016-Jul-18 20:00N 58°54' W 069°18'17 8.3 310 / 41003.3 11.3 8.9 2.2
2016-Jul-18 18:00N 59°00' W 068°48'13 4.5 360 / 71001.3 8.5 7.5 0.1
2016-Jul-18 15:00N 59°12' W 068°36'17 5.7 190 / 15999.1 14.3 8.6-0.3
2016-Jul-18 12:00N 59°24' W 068°12'12 4.0 160 / 22999.1 6.9 4.0-0.2
2016-Jul-18 09:00N 59°36' W 068°12'13 6.7 170 / 191000.4 7.7 3.8 0.3
2016-Jul-18 07:00N 59°48' W 068°24'3 3.0 160 / 221001.8 7.0 3.6 0.4
2016-Jul-18 06:00N 59°48' W 068°18'6 3.0 150 / 231002.5 7.5 4.5 0.3
2016-Jul-18 04:00N 59°42' W 068°18'0 0.0 140 / 211003.9 7.0 5.5 0.2
2016-Jul-18 03:00N 59°42' W 068°18'0 0.0 160 / 221004.1 11.2 9.0 0.2
2016-Jul-18 02:00N 59°42' W 068°18'0 0.0 200 / 191004.1 17.711.2 0.4
2016-Jul-18 01:00N 59°42' W 068°18'0 0.0 190 / 211004.2 12.4 9.8-0.0
2016-Jul-18 00:00N 59°42' W 068°18'0 0.0 190 / 211004.0 11.3 8.1-0.0
2016-Jul-17 23:00N 59°42' W 068°18'0 0.0 200 / 201003.9 13.2 8.4-0.1
2016-Jul-17 22:00N 59°42' W 068°18'7 2.2 200 / 181003.7 10.5 6.8-0.3
2016-Jul-17 19:00N 59°36' W 068°24'0 0.0 180 / 211001.9 12.8 6.6-0.5
2016-Jul-17 18:00N 59°36' W 068°24'0 0.0 170 / 181002.2 9.0 6.0-0.5
2016-Jul-17 17:00N 59°36' W 068°24'0 0.0 160 / 171002.8 7.7 6.1-0.5
2016-Jul-17 15:00N 59°36' W 068°24'0 0.0 130 / 131003.4 4.6 4.5 1.3
2016-Jul-17 13:00N 59°36' W 068°24'3 1.5 150 / 121004.3 4.7 4.7
2016-Jul-17 11:00N 59°36' W 068°30'3 3.0 180 / 91004.7 6.8 6.0-0.0
2016-Jul-17 10:00N 59°36' W 068°24'3 3.0 200 / 121003.9 7.1 5.3-0.1
2016-Jul-17 09:00N 59°36' W 068°30'0 0.0 220 / 131003.2 7.5 6.1-0.3
2016-Jul-17 08:00N 59°36' W 068°30'0 0.0 220 / 141002.5 7.1 6.4-0.2
2016-Jul-17 07:00N 59°36' W 068°30'0 0.0 220 / 181002.2 6.9 5.9-0.1
2016-Jul-17 06:00N 59°36' W 068°30'0 0.0 210 / 201001.2 6.1 5.8-0.4
2016-Jul-17 05:00N 59°36' W 068°30'0 0.0 210 / 181000.7 6.0 5.9-0.3
2016-Jul-17 04:00N 59°36' W 068°30'0 0.0 210 / 151000.2 6.6 6.3-0.0
2016-Jul-17 02:00N 59°36' W 068°30'6 3.0 240 / 14998.3 8.9 8.6-0.4
2016-Jul-17 00:00N 59°36' W 068°42'18 3.0 230 / 15996.1 6.7 5.6-0.9
2016-Jul-16 18:00N 59°54' W 068°42'18 4.5 180 / 15989.4 4.9 4.9-0.5
2016-Jul-16 14:00N 59°54' W 069°18'11 5.4 160 / 11988.6 3.1 3.0-0.7
2016-Jul-16 12:00N 60°00' W 069°36'12 6.0 160 / 13988.5 5.6 5.0 1.3
2016-Jul-16 10:00N 60°00' W 070°00'0 0.0 220 / 11989.6 9.0 7.0
2016-Jul-16 09:00N 60°00' W 070°00'0 0.0 230 / 9990.4 8.4 6.4
2016-Jul-16 08:00N 60°00' W 070°00'0 0.0 240 / 12991.0 8.4 6.9
2016-Jul-16 06:00N 60°00' W 070°00'0 0.0 260 / 11992.2 7.1 6.0
2016-Jul-16 05:00N 60°00' W 070°00'0 0.0 260 / 17992.1 8.0 4.7
2016-Jul-16 04:00N 60°00' W 070°00'0 0.0 260 / 18992.2 8.2 4.5
2016-Jul-16 02:00N 60°00' W 070°00'0 0.0 290 / 3992.1 8.5 4.6
2016-Jul-16 01:00N 60°00' W 070°00'0 0.0 080 / 7991.8 6.9 3.7
2016-Jul-15 23:00N 60°00' W 070°00'0 0.0 080 / 12990.9 8.3 2.7
2016-Jul-15 22:00N 60°00' W 070°00'0 0.0 260 / 14990.3 13.4 4.0
2016-Jul-15 19:00N 60°00' W 070°00'0 0.0 250 / 18989.6 12.9 3.8
2016-Jul-15 17:00N 60°00' W 070°00'0 0.0 260 / 21989.2 11.5 3.6
2016-Jul-15 14:00N 60°00' W 070°00'0 0.0 300 / 16989.3 8.7 2.7
2016-Jul-15 12:00N 60°00' W 070°00'0 0.0 290 / 19988.7 6.5 2.2
2016-Jul-15 11:00N 60°00' W 070°00'0 0.0 290 / 18988.3 5.6 1.8
2016-Jul-15 10:00N 60°00' W 070°00'0 0.0 280 / 12988.3 4.6 1.8
2016-Jul-15 08:00N 60°00' W 070°00'0 0.0 280 / 12988.3 3.5 1.6
2016-Jul-15 07:00N 60°00' W 070°00'0 0.0 290 / 10988.6 3.7 2.1
2016-Jul-15 06:00N 60°00' W 070°00'0 0.0 300 / 12989.1 3.8 2.1
2016-Jul-15 05:00N 60°00' W 070°00'0 0.0 300 / 13989.2 3.8 2.6
2016-Jul-15 04:00N 60°00' W 070°00'0 0.0 310 / 14989.6 3.8 2.4
2016-Jul-15 03:00N 60°00' W 070°00'   300 / 10990.3 3.5 2.4
Track history (hours):
 
Tides and Currents Weather Stations Pressure Air Temp Water Temp Dewpoint Dewpoint Depression Visibility Wind Speed Wind Dir Waves Ship Positions

Anna Desgagnes

Last reported at 2016-Jul-25 03:00 UTC. Time now 2016-Jul-25 04:21 UTC.
Position N 62°00' W 068°24'.

Length 173 m; draft 8.4 m.

Type: Ship. MMSI: 316297000.

Wind from 160 at 4 knots

Barometer 1018.8 mb
Air temperature 4.1 ° C
Dewpoint 4.1 ° C
Water temperature 2.4 ° C

Date/timePositionNaut miles runAvg speedWind from/ knotsBaromVisibWave heightAir tempDewpointWater temp
2016-Jul-25 03:00N 62°00' W 068°24'1312.7 160 / 41018.8 4.1 4.1 2.4
2016-Jul-25 02:00N 62°06' W 068°48'1010.3 290 / 51018.8 4.6 4.6 2.7
2016-Jul-25 01:00N 62°12' W 069°06'1514.6 280 / 61018.7 4.4 4.4 3.3
2016-Jul-25 00:00N 62°24' W 069°24'8 8.2 310 / 41018.4 3.8 3.8 2.8
2016-Jul-24 23:00N 62°30' W 069°36'1212.3 210 / 41018.0 4.1 4.1 2.4
2016-Jul-24 22:00N 62°42' W 069°42'7 6.6 170 / 11018.3 4.4 4.0 4.3
2016-Jul-24 21:00N 62°48' W 069°48'3 2.7 170 / 11018.1 6.4 5.0
2016-Jul-24 20:00N 62°48' W 069°42'0 0.0 160 / 41017.5 6.6 5.6
2016-Jul-24 18:00N 62°48' W 069°42'0 0.0 130 / 41016.8 5.4 4.8
2016-Jul-24 16:00N 62°48' W 069°42'3 0.9 110 / 31016.1 4.1 4.1
2016-Jul-24 13:00N 62°48' W 069°48'0 0.0 160 / 41015.7 4.1 4.1 3.3
2016-Jul-24 12:00N 62°48' W 069°48'3 2.7 150 / 21015.4 4.4 4.4 3.6
2016-Jul-24 11:00N 62°48' W 069°42'6 6.0 130 / 41015.5 3.8 3.8 3.4
2016-Jul-24 10:00N 62°42' W 069°42'6 6.0 150 / 41015.5 3.2 3.2 3.5
2016-Jul-24 09:00N 62°36' W 069°42'18 9.0 140 / 41015.1 2.8 2.8 2.2
2016-Jul-24 07:00N 62°18' W 069°42'7 6.6 110 / 51013.6 2.7 2.7 3.1
2016-Jul-24 06:00N 62°12' W 069°48'12 6.2 100 / 81013.0 2.7 2.6 3.0
2016-Jul-24 04:00N 62°00' W 069°42'7 6.6 070 / 31012.3 2.6 2.6 3.1
2016-Jul-24 03:00N 61°54' W 069°36'18 6.1 080 / 101011.6 2.4 2.3 2.8
2016-Jul-24 00:00N 61°36' W 069°42'6 6.0 030 / 101011.5 3.3 3.3 3.4
2016-Jul-23 23:00N 61°30' W 069°42'1212.0 340 / 101011.2 3.4 3.3 3.3
2016-Jul-23 22:00N 61°18' W 069°42'6 6.0 350 / 71010.8 3.2 3.2 2.9
2016-Jul-23 21:00N 61°12' W 069°42'6 6.0 010 / 61010.7 3.6 3.6 3.1
2016-Jul-23 20:00N 61°06' W 069°42'6 6.0 330 / 51010.3 3.2 3.2 2.5
2016-Jul-23 19:00N 61°00' W 069°42'0 0.0 350 / 31009.7 3.5 3.4
2016-Jul-23 18:00N 61°00' W 069°42'0 0.0 340 / 121009.0 2.7 2.7
2016-Jul-23 15:00N 61°00' W 069°42'0 0.0 320 / 81007.3 2.6 2.6
2016-Jul-23 14:00N 61°00' W 069°42'0 0.0 310 / 81007.0 2.6 2.6
2016-Jul-23 11:00N 61°00' W 069°42'6 3.0 320 / 131006.4 3.1 3.1 1.8
2016-Jul-23 09:00N 61°06' W 069°42'9 8.7 290 / 121006.0 3.5 3.5 1.0
2016-Jul-23 08:00N 61°06' W 069°24'2010.1 300 / 171004.8 3.4 3.3 2.5
2016-Jul-23 06:00N 61°06' W 068°42'1110.6 330 / 151003.4 2.4 2.3 2.9
2016-Jul-23 05:00N 61°00' W 068°24'1110.6 300 / 101003.0 2.2 2.2 2.5
2016-Jul-23 04:00N 60°54' W 068°06'2512.6 280 / 91002.5 2.4 2.4 2.3
2016-Jul-23 02:00N 60°36' W 067°30'7 6.7 300 / 111002.0 2.1 2.0 1.6
2016-Jul-23 01:00N 60°30' W 067°24'1212.4 320 / 161001.7 1.8 1.8 0.3
2016-Jul-23 00:00N 60°18' W 067°30'7 6.7 340 / 181001.3 2.3 2.3 0.6
2016-Jul-22 23:00N 60°12' W 067°24'7 6.7 350 / 191001.2 2.6 2.5-0.3
2016-Jul-22 22:00N 60°06' W 067°30'17 8.5 020 / 141000.7 2.0 2.0-0.1
2016-Jul-22 20:00N 59°54' W 067°54'1313.5 330 / 81000.8 5.1 5.1 0.1
2016-Jul-22 19:00N 59°48' W 068°18'17 8.5 310 / 171000.2 2.6 2.5 1.0
2016-Jul-22 17:00N 59°36' W 068°42'24 8.2 320 / 13999.1 1.7 1.7 0.8
2016-Jul-22 14:00N 59°24' W 069°24'9 8.6 350 / 12997.1 6.5 6.4 2.3
2016-Jul-22 13:00N 59°18' W 069°36'0 0.0 060 / 3997.2 7.3 7.3
2016-Jul-22 12:00N 59°18' W 069°36'0 0.0 050 / 4997.1 7.2 7.2
2016-Jul-22 10:00N 59°18' W 069°36'0 0.0 997.1 8.4 8.4
2016-Jul-22 06:00N 59°18' W 069°36'0 0.0 330 / 5996.5 6.7 6.7
2016-Jul-21 17:00N 59°18' W 069°36'0 0.0 120 / 20998.8 18.2 9.7
2016-Jul-21 16:00N 59°18' W 069°36'0 0.0 110 / 18999.3 19.011.0
2016-Jul-21 15:00N 59°18' W 069°36'0 0.0 110 / 11999.9 18.511.0
2016-Jul-21 07:00N 59°18' W 069°36'0 0.0 010 / 51005.4 4.6 3.0
2016-Jul-21 05:00N 59°18' W 069°36'0 0.0 130 / 41006.2 9.6 5.0
2016-Jul-21 04:00N 59°18' W 069°36'0 0.0 150 / 21006.5 8.8 4.7
2016-Jul-20 22:00N 59°18' W 069°36'15 7.5 130 / 161007.8 13.3 5.7 4.2
2016-Jul-20 20:00N 59°30' W 069°18'2211.0 120 / 171009.2 3.8 1.7 1.6
2016-Jul-20 18:00N 59°18' W 068°42'1212.0 120 / 111009.8 3.1 1.6 1.1
2016-Jul-20 17:00N 59°06' W 068°42'2512.4 110 / 101009.3 3.2 1.5 0.4
2016-Jul-20 15:00N 58°54' W 069°24'20 9.8 270 / 21008.7 11.3 7.1 1.1
2016-Jul-20 13:00N 58°42' W 069°54'0 0.0 150 / 31009.7 11.5 8.3
2016-Jul-20 11:00N 58°42' W 069°54'0 0.0 180 / 61010.7 9.6 7.7
2016-Jul-20 08:00N 58°42' W 069°54'0 0.0 200 / 81011.4 7.6 6.4
2016-Jul-20 07:00N 58°42' W 069°54'0 0.0 210 / 81011.0 8.8 6.8
2016-Jul-19 23:00N 58°42' W 069°54'0 0.0 060 / 21010.9 12.1 6.7
2016-Jul-19 19:00N 58°42' W 069°54'0 0.0 1010.9 11.0 7.7
2016-Jul-19 17:00N 58°42' W 069°54'0 0.0 060 / 61009.7 8.1 6.9
2016-Jul-19 16:00N 58°42' W 069°54'0 0.0 020 / 111009.2 8.1 6.5
2016-Jul-19 11:00N 58°42' W 069°54'0 0.0 340 / 71007.3 9.6 7.1
2016-Jul-19 09:00N 58°42' W 069°54'0 0.0 360 / 61006.9 9.5 7.0
2016-Jul-19 07:00N 58°42' W 069°54'0 0.0 350 / 81006.2 10.0 7.1
2016-Jul-19 06:00N 58°42' W 069°54'0 0.0 360 / 91005.9 10.7 7.4
2016-Jul-19 05:00N 58°42' W 069°54'0 0.0 360 / 121005.0 11.2 7.3
2016-Jul-19 02:00N 58°42' W 069°54'0 0.0 350 / 21003.7 11.4 9.6
2016-Jul-19 01:00N 58°42' W 069°54'0 0.0 170 / 41003.8 12.610.1
2016-Jul-18 23:00N 58°42' W 069°54'9 4.3 010 / 31002.6 12.7 9.0 6.2
2016-Jul-18 21:00N 58°48' W 069°42'1413.8 190 / 61003.5 10.7 8.6 2.8
2016-Jul-18 20:00N 58°54' W 069°18'17 8.3 310 / 41003.3 11.3 8.9 2.2
2016-Jul-18 18:00N 59°00' W 068°48'13 4.5 360 / 71001.3 8.5 7.5 0.1
2016-Jul-18 15:00N 59°12' W 068°36'17 5.7 190 / 15999.1 14.3 8.6-0.3
2016-Jul-18 12:00N 59°24' W 068°12'12 4.0 160 / 22999.1 6.9 4.0-0.2
2016-Jul-18 09:00N 59°36' W 068°12'13 6.7 170 / 191000.4 7.7 3.8 0.3
2016-Jul-18 07:00N 59°48' W 068°24'3 3.0 160 / 221001.8 7.0 3.6 0.4
2016-Jul-18 06:00N 59°48' W 068°18'6 3.0 150 / 231002.5 7.5 4.5 0.3
2016-Jul-18 04:00N 59°42' W 068°18'0 0.0 140 / 211003.9 7.0 5.5 0.2
2016-Jul-18 03:00N 59°42' W 068°18'0 0.0 160 / 221004.1 11.2 9.0 0.2
2016-Jul-18 02:00N 59°42' W 068°18'0 0.0 200 / 191004.1 17.711.2 0.4
2016-Jul-18 01:00N 59°42' W 068°18'0 0.0 190 / 211004.2 12.4 9.8-0.0
2016-Jul-18 00:00N 59°42' W 068°18'0 0.0 190 / 211004.0 11.3 8.1-0.0
2016-Jul-17 23:00N 59°42' W 068°18'0 0.0 200 / 201003.9 13.2 8.4-0.1
2016-Jul-17 22:00N 59°42' W 068°18'7 2.2 200 / 181003.7 10.5 6.8-0.3
2016-Jul-17 19:00N 59°36' W 068°24'0 0.0 180 / 211001.9 12.8 6.6-0.5
2016-Jul-17 18:00N 59°36' W 068°24'0 0.0 170 / 181002.2 9.0 6.0-0.5
2016-Jul-17 17:00N 59°36' W 068°24'0 0.0 160 / 171002.8 7.7 6.1-0.5
2016-Jul-17 15:00N 59°36' W 068°24'0 0.0 130 / 131003.4 4.6 4.5 1.3
2016-Jul-17 13:00N 59°36' W 068°24'3 1.5 150 / 121004.3 4.7 4.7
2016-Jul-17 11:00N 59°36' W 068°30'3 3.0 180 / 91004.7 6.8 6.0-0.0
2016-Jul-17 10:00N 59°36' W 068°24'3 3.0 200 / 121003.9 7.1 5.3-0.1
2016-Jul-17 09:00N 59°36' W 068°30'0 0.0 220 / 131003.2 7.5 6.1-0.3
2016-Jul-17 08:00N 59°36' W 068°30'0 0.0 220 / 141002.5 7.1 6.4-0.2
2016-Jul-17 07:00N 59°36' W 068°30'0 0.0 220 / 181002.2 6.9 5.9-0.1
2016-Jul-17 06:00N 59°36' W 068°30'0 0.0 210 / 201001.2 6.1 5.8-0.4
2016-Jul-17 05:00N 59°36' W 068°30'0 0.0 210 / 181000.7 6.0 5.9-0.3
2016-Jul-17 04:00N 59°36' W 068°30'0 0.0 210 / 151000.2 6.6 6.3-0.0
2016-Jul-17 02:00N 59°36' W 068°30'6 3.0 240 / 14998.3 8.9 8.6-0.4
2016-Jul-17 00:00N 59°36' W 068°42'18 3.0 230 / 15996.1 6.7 5.6-0.9
2016-Jul-16 18:00N 59°54' W 068°42'18 4.5 180 / 15989.4 4.9 4.9-0.5
2016-Jul-16 14:00N 59°54' W 069°18'11 5.4 160 / 11988.6 3.1 3.0-0.7
2016-Jul-16 12:00N 60°00' W 069°36'12 6.0 160 / 13988.5 5.6 5.0 1.3
2016-Jul-16 10:00N 60°00' W 070°00'0 0.0 220 / 11989.6 9.0 7.0
2016-Jul-16 09:00N 60°00' W 070°00'0 0.0 230 / 9990.4 8.4 6.4
2016-Jul-16 08:00N 60°00' W 070°00'0 0.0 240 / 12991.0 8.4 6.9
2016-Jul-16 06:00N 60°00' W 070°00'0 0.0 260 / 11992.2 7.1 6.0
2016-Jul-16 05:00N 60°00' W 070°00'0 0.0 260 / 17992.1 8.0 4.7
2016-Jul-16 04:00N 60°00' W 070°00'0 0.0 260 / 18992.2 8.2 4.5
2016-Jul-16 02:00N 60°00' W 070°00'0 0.0 290 / 3992.1 8.5 4.6
2016-Jul-16 01:00N 60°00' W 070°00'0 0.0 080 / 7991.8 6.9 3.7
2016-Jul-15 23:00N 60°00' W 070°00'0 0.0 080 / 12990.9 8.3 2.7
2016-Jul-15 22:00N 60°00' W 070°00'0 0.0 260 / 14990.3 13.4 4.0
2016-Jul-15 19:00N 60°00' W 070°00'0 0.0 250 / 18989.6 12.9 3.8
2016-Jul-15 17:00N 60°00' W 070°00'0 0.0 260 / 21989.2 11.5 3.6
2016-Jul-15 14:00N 60°00' W 070°00'0 0.0 300 / 16989.3 8.7 2.7
2016-Jul-15 12:00N 60°00' W 070°00'0 0.0 290 / 19988.7 6.5 2.2
2016-Jul-15 11:00N 60°00' W 070°00'0 0.0 290 / 18988.3 5.6 1.8
2016-Jul-15 10:00N 60°00' W 070°00'0 0.0 280 / 12988.3 4.6 1.8
2016-Jul-15 08:00N 60°00' W 070°00'0 0.0 280 / 12988.3 3.5 1.6
2016-Jul-15 07:00N 60°00' W 070°00'0 0.0 290 / 10988.6 3.7 2.1
2016-Jul-15 06:00N 60°00' W 070°00'0 0.0 300 / 12989.1 3.8 2.1
2016-Jul-15 05:00N 60°00' W 070°00'0 0.0 300 / 13989.2 3.8 2.6
2016-Jul-15 04:00N 60°00' W 070°00'0 0.0 310 / 14989.6 3.8 2.4
2016-Jul-15 03:00N 60°00' W 070°00'   300 / 10990.3 3.5 2.4

Dump ship's entire track history